createdAt,value
2023-05-01T00:02:27.983Z,99871.28
2023-05-01T00:04:56.285Z,99858.63
2023-05-01T00:07:24.438Z,99855.50
2023-05-01T00:09:52.961Z,99865.75
2023-05-01T00:12:20.975Z,99857.47
2023-05-01T00:14:48.628Z,99855.13
2023-05-01T00:17:18.281Z,99849.19
2023-05-01T00:19:46.060Z,99845.66
2023-05-01T00:22:14.184Z,99848.00
2023-05-01T00:24:41.996Z,99846.03
2023-05-01T00:27:10.393Z,99837.75
2023-05-01T00:29:38.158Z,99836.97
2023-05-01T00:32:07.312Z,99836.56
2023-05-01T00:34:36.373Z,99828.69
2023-05-01T00:37:04.896Z,99828.66
2023-05-01T00:39:32.642Z,99831.41
2023-05-01T00:42:00.947Z,99819.19
2023-05-01T00:44:28.628Z,99827.06
2023-05-01T00:47:00.119Z,99809.69
2023-05-01T00:49:27.938Z,99814.41
2023-05-01T00:51:58.737Z,99811.28
2023-05-01T00:54:27.624Z,99785.22
2023-05-01T00:56:55.631Z,99815.19
2023-05-01T00:59:23.871Z,99793.94
2023-05-01T01:04:20.050Z,99797.91
2023-05-01T01:06:57.728Z,99791.16
2023-05-01T01:09:40.664Z,99791.63
2023-05-01T01:12:17.149Z,99790.00
2023-05-01T01:14:52.119Z,99784.09
2023-05-01T01:17:31.488Z,99777.38
2023-05-01T01:20:25.824Z,99783.28
2023-05-01T01:23:02.398Z,99773.84
2023-05-01T01:26:01.601Z,99764.78
2023-05-01T01:29:03.918Z,99767.53
2023-05-01T01:31:37.694Z,99766.31
2023-05-01T01:34:14.590Z,99765.13
2023-05-01T01:36:47.526Z,99765.16
2023-05-01T01:39:28.283Z,99770.28
2023-05-01T01:41:59.490Z,99767.91
2023-05-01T01:44:34.800Z,99766.72
2023-05-01T01:47:07.486Z,99771.84
2023-05-01T01:49:39.442Z,99763.97
2023-05-01T01:52:09.751Z,99766.69
2023-05-01T01:54:41.756Z,99763.94
2023-05-01T01:57:14.146Z,99764.72
2023-05-01T01:59:43.073Z,99763.16
2023-05-01T02:02:12.487Z,99756.09
2023-05-01T02:04:43.807Z,99752.13
2023-05-01T02:07:14.307Z,99756.06
2023-05-01T02:09:43.377Z,99757.63
2023-05-01T02:12:13.029Z,99751.69
2023-05-01T02:14:43.438Z,99745.81
2023-05-01T02:17:11.678Z,99754.50
2023-05-01T02:19:41.888Z,99753.69
2023-05-01T02:22:11.586Z,99751.31
2023-05-01T02:24:41.110Z,99746.19
2023-05-01T02:27:16.796Z,99722.94
2023-05-01T02:29:44.485Z,99756.03
2023-05-01T02:32:13.471Z,99737.47
2023-05-01T02:34:43.201Z,99748.91
2023-05-01T02:37:12.595Z,99740.28
2023-05-01T02:39:43.019Z,99752.50
2023-05-01T02:42:12.712Z,99741.88
2023-05-01T02:44:44.587Z,99703.25
2023-05-01T02:47:19.169Z,99740.31
2023-05-01T02:49:49.615Z,99738.34
2023-05-01T02:52:19.707Z,99733.22
2023-05-01T02:54:50.783Z,99726.91
2023-05-01T02:57:20.559Z,99721.41
2023-05-01T02:59:48.305Z,99715.91
2023-05-01T03:02:16.751Z,99722.59
2023-05-01T03:04:45.124Z,99722.63
2023-05-01T03:07:14.493Z,99723.78
2023-05-01T03:09:42.639Z,99717.88
2023-05-01T03:12:10.356Z,99716.34
2023-05-01T03:14:38.467Z,99715.56
2023-05-01T03:17:06.085Z,99715.13
2023-05-01T03:19:34.322Z,99710.81
2023-05-01T03:22:02.086Z,99709.66
2023-05-01T03:24:32.117Z,99708.47
2023-05-01T03:26:59.708Z,99708.06
2023-05-01T03:29:28.934Z,99706.53
2023-05-01T03:31:57.982Z,99704.13
2023-05-01T03:34:25.815Z,99702.56
2023-05-01T03:36:55.693Z,99706.91
2023-05-01T03:39:25.510Z,99704.53
2023-05-01T03:42:17.015Z,99711.22
2023-05-01T03:44:45.727Z,99700.19
2023-05-01T03:47:14.555Z,99701.38
2023-05-01T03:49:43.738Z,99701.81
2023-05-01T03:52:12.503Z,99702.94
2023-05-01T03:54:40.758Z,99695.47
2023-05-01T03:57:23.421Z,99687.63
2023-05-01T03:59:51.580Z,99686.81
2023-05-01T04:02:20.924Z,99689.56
2023-05-01T04:04:48.593Z,99684.84
2023-05-01T04:07:16.786Z,99682.47
2023-05-01T04:09:48.545Z,99690.75
2023-05-01T04:12:16.310Z,99687.63
2023-05-01T04:14:46.039Z,99692.31
2023-05-01T04:17:13.830Z,99695.09
2023-05-01T04:19:42.077Z,99677.72
2023-05-01T04:22:11.087Z,99686.00
2023-05-01T04:24:39.582Z,99683.63
2023-05-01T04:27:08.130Z,99683.28
2023-05-01T04:29:35.777Z,99680.13
2023-05-01T04:32:05.313Z,99680.50
2023-05-01T04:34:33.131Z,99680.50
2023-05-01T04:37:01.863Z,99683.66
2023-05-01T04:39:30.453Z,99688.00
2023-05-01T04:41:59.040Z,99684.84
2023-05-01T04:44:27.007Z,99675.00
2023-05-01T04:46:55.224Z,99688.00
2023-05-01T04:49:24.316Z,99689.97
2023-05-01T04:51:52.503Z,99682.13
2023-05-01T04:54:20.862Z,99686.09
2023-05-01T04:56:48.837Z,99687.66
2023-05-01T04:59:16.959Z,99694.75
2023-05-01T05:01:45.072Z,99683.69
2023-05-01T05:04:12.929Z,99685.69
2023-05-01T05:06:42.085Z,99684.91
2023-05-01T05:09:18.061Z,99688.03
2023-05-01T05:11:47.810Z,99680.53
2023-05-01T05:14:21.851Z,99695.91
2023-05-01T05:16:49.501Z,99686.44
2023-05-01T05:19:17.818Z,99686.81
2023-05-01T05:21:47.665Z,99691.16
2023-05-01T05:24:15.818Z,99696.28
2023-05-01T05:26:43.478Z,99703.72
2023-05-01T05:29:11.515Z,99700.53
2023-05-01T05:31:39.265Z,99696.22
2023-05-01T05:34:07.060Z,99700.13
2023-05-01T05:36:35.447Z,99691.84
2023-05-01T05:39:04.869Z,99695.34
2023-05-01T05:41:33.958Z,99697.69
2023-05-01T05:44:04.017Z,99698.41
2023-05-01T05:46:32.303Z,99705.47
2023-05-01T05:49:00.887Z,99701.09
2023-05-01T05:51:30.465Z,99691.19
2023-05-01T05:53:58.790Z,99695.06
2023-05-01T05:56:28.317Z,99695.78
2023-05-01T05:58:57.233Z,99692.13
2023-05-01T06:01:24.966Z,99697.66
2023-05-01T06:03:53.172Z,99693.16
2023-05-01T06:06:21.087Z,99692.50
2023-05-01T06:08:50.007Z,99695.03
2023-05-01T06:11:17.875Z,99700.69
2023-05-01T06:13:46.824Z,99698.28
2023-05-01T06:16:15.399Z,99702.22
2023-05-01T06:18:45.593Z,99697.41
2023-05-01T06:21:14.138Z,99701.59
2023-05-01T06:23:41.818Z,99694.28
2023-05-01T06:26:31.973Z,99691.03
2023-05-01T06:29:00.994Z,99686.41
2023-05-01T06:31:29.559Z,99687.69
2023-05-01T06:33:58.170Z,99681.44
2023-05-01T06:36:48.634Z,99696.84
2023-05-01T06:39:16.298Z,99692.38
2023-05-01T06:41:47.243Z,99691.97
2023-05-01T06:44:18.127Z,99662.38
2023-05-01T06:46:46.279Z,99691.53
2023-05-01T06:49:13.994Z,99699.34
2023-05-01T06:51:41.651Z,99685.63
2023-05-01T06:54:09.864Z,99695.84
2023-05-01T06:56:37.457Z,99691.66
2023-05-01T06:59:06.091Z,99697.66
2023-05-01T07:01:35.711Z,99693.47
2023-05-01T07:04:04.802Z,99694.69
2023-05-01T07:06:33.196Z,99693.47
2023-05-01T07:09:01.117Z,99672.38
2023-05-01T07:11:28.737Z,99695.16
2023-05-01T07:13:56.691Z,99699.44
2023-05-01T07:16:24.684Z,99697.56
2023-05-01T07:18:54.093Z,99700.78
2023-05-01T07:21:22.334Z,99700.84
2023-05-01T07:23:50.634Z,99690.13
2023-05-01T07:26:18.254Z,99685.78
2023-05-01T07:28:46.586Z,99690.91
2023-05-01T07:31:14.224Z,99690.78
2023-05-01T07:33:42.965Z,99684.75
2023-05-01T07:36:13.001Z,99687.78
2023-05-01T07:38:41.397Z,99694.91
2023-05-01T07:41:09.041Z,99687.63
2023-05-01T07:43:37.073Z,99690.13
2023-05-01T07:46:05.431Z,99684.38
2023-05-01T07:48:34.012Z,99688.78
2023-05-01T07:51:03.080Z,99698.00
2023-05-01T07:59:38.315Z,99639.97
2023-05-01T08:04:19.284Z,99661.53
2023-05-01T08:06:46.998Z,99653.41
2023-05-01T08:09:15.080Z,99652.78
2023-05-01T08:11:42.717Z,99648.84
2023-05-01T08:14:10.377Z,99656.06
2023-05-01T08:16:38.908Z,99659.75
2023-05-01T08:19:06.548Z,99658.91
2023-05-01T08:21:35.782Z,99659.91
2023-05-01T08:24:03.411Z,99656.09
2023-05-01T08:26:31.469Z,99663.16
2023-05-01T08:28:59.057Z,99664.09
2023-05-01T08:31:27.054Z,99670.09
2023-05-01T08:33:54.793Z,99662.91
2023-05-01T08:36:22.741Z,99666.78
2023-05-01T08:38:51.638Z,99664.38
2023-05-01T08:41:23.927Z,99663.16
2023-05-01T08:43:51.692Z,99668.56
2023-05-01T08:46:30.385Z,99670.47
2023-05-01T08:48:59.620Z,99669.13
2023-05-01T08:51:28.978Z,99659.06
2023-05-01T08:54:00.439Z,99664.63
2023-05-01T08:56:29.322Z,99661.44
2023-05-01T08:58:59.368Z,99664.00
2023-05-01T09:01:29.342Z,99659.53
2023-05-01T09:03:59.081Z,99664.88
2023-05-01T09:06:28.364Z,99671.91
2023-05-01T09:08:56.730Z,99667.88
2023-05-01T09:11:26.682Z,99671.00
2023-05-01T09:13:54.889Z,99664.81
2023-05-01T09:16:23.218Z,99672.97
2023-05-01T09:18:51.347Z,99672.06
2023-05-01T09:21:19.900Z,99677.38
2023-05-01T09:23:51.339Z,99665.59
2023-05-01T09:26:19.478Z,99670.94
2023-05-01T09:28:51.659Z,99666.66
2023-05-01T09:31:23.776Z,99666.00
2023-05-01T09:33:54.947Z,99670.53
2023-05-01T09:36:24.983Z,99672.53
2023-05-01T09:38:53.222Z,99668.84
2023-05-01T09:41:22.317Z,99649.50
2023-05-01T09:43:52.725Z,99674.22
2023-05-01T09:46:20.993Z,99672.28
2023-05-01T09:48:59.744Z,99675.00
2023-05-01T09:51:29.162Z,99674.34
2023-05-01T09:53:58.622Z,99669.28
2023-05-01T09:56:27.347Z,99678.03
2023-05-01T09:58:57.354Z,99671.53
2023-05-01T10:01:41.160Z,99679.44
2023-05-01T10:04:10.300Z,99675.56
2023-05-01T10:06:38.779Z,99678.66
2023-05-01T10:09:16.661Z,99678.38
2023-05-01T10:11:52.104Z,99673.69
2023-05-01T10:14:24.014Z,99669.41
2023-05-01T10:16:53.050Z,99670.03
2023-05-01T10:19:22.195Z,99672.31
2023-05-01T10:21:50.091Z,99675.72
2023-05-01T10:24:18.386Z,99629.31
2023-05-01T10:26:49.473Z,99671.47
2023-05-01T10:29:17.590Z,99669.63
2023-05-01T10:31:46.654Z,99675.91
2023-05-01T10:34:19.256Z,99667.59
2023-05-01T10:36:51.211Z,99639.16
2023-05-01T10:39:31.263Z,99672.44
2023-05-01T10:42:04.491Z,99672.16
2023-05-01T10:44:33.009Z,99667.34
2023-05-01T10:47:41.484Z,99660.38
2023-05-01T10:50:10.936Z,99666.25
2023-05-01T10:53:16.273Z,99668.47
2023-05-01T10:55:45.216Z,99653.44
2023-05-01T10:58:13.634Z,99660.97
2023-05-01T11:00:42.263Z,99647.22
2023-05-01T11:03:36.612Z,99648.59
2023-05-01T11:06:08.333Z,99645.34
2023-05-01T11:08:38.458Z,99652.38
2023-05-01T11:11:51.659Z,99646.41
2023-05-01T11:14:19.419Z,99653.44
2023-05-01T11:16:49.057Z,99642.63
2023-05-01T11:19:50.820Z,99645.34
2023-05-01T11:22:20.398Z,99641.03
2023-05-01T11:24:48.199Z,99647.50
2023-05-01T11:27:16.640Z,99645.88
2023-05-01T11:29:48.668Z,99601.03
2023-05-01T11:32:23.395Z,99638.53
2023-05-01T11:34:52.193Z,99598.88
2023-05-01T11:37:21.795Z,99635.59
2023-05-01T11:39:53.852Z,99632.63
2023-05-01T11:42:23.450Z,99632.91
2023-05-01T11:45:07.202Z,99628.56
2023-05-01T11:47:35.046Z,99631.56
2023-05-01T11:50:02.885Z,99626.44
2023-05-01T11:52:42.877Z,99625.38
2023-05-01T11:55:11.671Z,99632.97
2023-05-01T11:57:47.178Z,99623.47
2023-05-01T12:00:16.686Z,99623.53
2023-05-01T12:02:58.185Z,99618.25
2023-05-01T12:05:26.622Z,99616.09
2023-05-01T12:08:07.655Z,99619.38
2023-05-01T12:10:36.434Z,99612.59
2023-05-01T12:13:05.164Z,99619.47
2023-05-01T12:15:35.074Z,99619.59
2023-05-01T12:18:02.956Z,99621.09
2023-05-01T12:20:38.808Z,99614.31
2023-05-01T12:23:09.695Z,99609.41
2023-05-01T12:25:39.920Z,99602.09
2023-05-01T12:28:14.267Z,99613.25
2023-05-01T12:30:42.863Z,99615.06
2023-05-01T12:33:26.160Z,99616.69
2023-05-01T12:35:54.327Z,99617.31
2023-05-01T12:38:24.581Z,99615.16
2023-05-01T12:40:54.650Z,99588.25
2023-05-01T12:46:05.279Z,99617.84
2023-05-01T12:48:34.153Z,99600.44
2023-05-01T12:51:02.281Z,99602.69
2023-05-01T12:53:31.635Z,99604.47
2023-05-01T12:56:01.165Z,99595.69
2023-05-01T12:58:37.199Z,99566.81
2023-05-01T13:01:06.554Z,99605.50
2023-05-01T13:03:38.499Z,99593.88
2023-05-01T13:06:07.416Z,99601.09
2023-05-01T13:08:39.342Z,99599.53
2023-05-01T13:11:13.040Z,99597.56
2023-05-01T13:13:41.615Z,99594.19
2023-05-01T13:16:12.877Z,99585.41
2023-05-01T13:18:45.563Z,99585.00
2023-05-01T13:21:16.417Z,99587.78
2023-05-01T13:23:54.220Z,99590.09
2023-05-01T13:26:27.956Z,99590.16
2023-05-01T13:28:57.024Z,99593.41
2023-05-01T13:31:25.071Z,99594.13
2023-05-01T13:33:54.514Z,99581.91
2023-05-01T13:36:26.188Z,99586.78
2023-05-01T13:38:57.637Z,99585.63
2023-05-01T13:41:27.176Z,99590.78
2023-05-01T13:43:56.748Z,99597.25
2023-05-01T13:46:26.798Z,99599.63
2023-05-01T13:48:54.614Z,99597.78
2023-05-01T13:51:24.182Z,99597.81
2023-05-01T13:53:54.181Z,99594.94
2023-05-01T13:56:23.433Z,99587.72
2023-05-01T13:58:51.128Z,99587.72
2023-05-01T14:01:20.326Z,99570.16
2023-05-01T14:03:48.921Z,99583.41
2023-05-01T14:06:18.957Z,99577.16
2023-05-01T14:08:48.252Z,99576.31
2023-05-01T14:11:16.803Z,99567.38
2023-05-01T14:13:49.442Z,99576.50
2023-05-01T14:16:24.359Z,99562.97
2023-05-01T14:18:54.437Z,99567.09
2023-05-01T14:21:23.869Z,99566.88
2023-05-01T14:23:53.737Z,99569.63
2023-05-01T14:26:23.827Z,99554.19
2023-05-01T14:28:53.562Z,99554.78
2023-05-01T14:31:27.087Z,99554.28
2023-05-01T14:33:57.824Z,99542.47
2023-05-01T14:36:26.603Z,99551.72
2023-05-01T14:38:57.685Z,99547.47
2023-05-01T14:41:25.524Z,99538.28
2023-05-01T14:43:54.688Z,99518.38
2023-05-01T14:46:29.213Z,99551.59
2023-05-01T14:48:57.014Z,99548.88
2023-05-01T14:51:24.902Z,99549.16
2023-05-01T14:53:52.977Z,99543.06
2023-05-01T14:56:21.149Z,99551.13
2023-05-01T14:58:48.735Z,99550.06
2023-05-01T15:01:18.337Z,99540.19
2023-05-01T15:03:46.383Z,99535.25
2023-05-01T15:06:14.446Z,99547.81
2023-05-01T15:08:42.148Z,99553.84
2023-05-01T15:11:09.904Z,99547.72
2023-05-01T15:13:37.523Z,99551.63
2023-05-01T15:16:05.769Z,99551.53
2023-05-01T15:18:35.428Z,99544.97
2023-05-01T15:21:03.014Z,99546.78
2023-05-01T15:23:31.862Z,99545.03
2023-05-01T15:26:00.847Z,99539.38
2023-05-01T15:28:28.475Z,99552.00
2023-05-01T15:30:56.346Z,99538.78
2023-05-01T15:33:24.125Z,99542.34
2023-05-01T15:35:54.277Z,99533.97
2023-05-01T15:38:22.138Z,99545.84
2023-05-01T15:40:50.386Z,99537.56
2023-05-01T15:43:17.948Z,99542.28
2023-05-01T15:45:45.742Z,99536.88
2023-05-01T15:48:13.760Z,99546.88
2023-05-01T15:50:41.518Z,99550.47
2023-05-01T15:53:10.726Z,99551.16
2023-05-01T15:55:38.342Z,99554.06
2023-05-01T15:58:05.985Z,99549.38
2023-05-01T16:00:35.998Z,99546.09
2023-05-01T16:03:04.567Z,99545.63
2023-05-01T16:05:33.126Z,99550.28
2023-05-01T16:08:02.147Z,99551.09
2023-05-01T16:10:37.203Z,99553.13
2023-05-01T16:13:06.148Z,99557.78
2023-05-01T16:15:34.877Z,99564.28
2023-05-01T16:18:05.068Z,99564.28
2023-05-01T16:20:35.864Z,99564.03
2023-05-01T16:23:04.209Z,99564.09
2023-05-01T16:25:33.273Z,99573.53
2023-05-01T16:28:01.223Z,99577.59
2023-05-01T16:30:28.817Z,99573.81
2023-05-01T16:32:56.947Z,99579.19
2023-05-01T16:35:28.255Z,99579.69
2023-05-01T16:37:56.470Z,99585.88
2023-05-01T16:40:24.423Z,99590.69
2023-05-01T16:42:54.277Z,99588.00
2023-05-01T16:45:22.633Z,99579.66
2023-05-01T16:47:51.305Z,99586.69
2023-05-01T16:50:20.545Z,99589.66
2023-05-01T16:52:48.599Z,99589.47
2023-05-01T16:55:16.625Z,99587.56
2023-05-01T16:57:44.679Z,99591.34
2023-05-01T17:00:15.189Z,99591.31
2023-05-01T17:02:44.701Z,99597.66
2023-05-01T17:05:12.545Z,99596.16
2023-05-01T17:07:40.224Z,99595.09
2023-05-01T17:10:09.070Z,99598.66
2023-05-01T17:12:36.928Z,99600.63
2023-05-01T17:15:06.170Z,99603.41
2023-05-01T17:17:36.597Z,99598.63
2023-05-01T17:20:04.660Z,99609.22
2023-05-01T17:22:32.563Z,99604.13
2023-05-01T17:25:02.403Z,99609.63
2023-05-01T17:27:30.906Z,99612.63
2023-05-01T17:29:58.589Z,99616.16
2023-05-01T17:32:36.356Z,99621.69
2023-05-01T17:35:07.489Z,99600.47
2023-05-01T17:37:35.161Z,99610.66
2023-05-01T17:40:04.897Z,99617.47
2023-05-01T17:42:32.583Z,99610.00
2023-05-01T17:45:00.257Z,99618.91
2023-05-01T17:47:28.245Z,99617.94
2023-05-01T17:49:56.059Z,99623.09
2023-05-01T17:52:25.447Z,99627.75
2023-05-01T17:54:53.051Z,99634.41
2023-05-01T17:57:20.982Z,99634.22
2023-05-01T17:59:48.621Z,99636.56
2023-05-01T18:02:16.240Z,99631.59
2023-05-01T18:04:43.951Z,99638.03
2023-05-01T18:07:11.959Z,99642.00
2023-05-01T18:09:41.269Z,99643.06
2023-05-01T18:12:10.244Z,99652.03
2023-05-01T18:14:38.610Z,99658.31
2023-05-01T18:17:06.476Z,99659.03
2023-05-01T18:19:34.144Z,99666.81
2023-05-01T18:22:03.582Z,99657.50
2023-05-01T18:24:31.640Z,99672.38
2023-05-01T18:27:00.957Z,99668.78
2023-05-01T18:29:28.629Z,99687.09
2023-05-01T18:31:56.418Z,99677.72
2023-05-01T18:34:25.015Z,99674.81
2023-05-01T18:36:54.589Z,99682.25
2023-05-01T18:39:22.973Z,99686.44
2023-05-01T18:41:51.364Z,99692.06
2023-05-01T18:44:20.515Z,99695.31
2023-05-01T18:46:48.164Z,99711.75
2023-05-01T18:49:15.790Z,99710.81
2023-05-01T18:51:43.509Z,99715.56
2023-05-01T18:54:11.115Z,99719.19
2023-05-01T19:00:27.789Z,99733.03
2023-05-01T19:02:55.753Z,99715.94
2023-05-01T19:05:25.046Z,99740.03
2023-05-01T19:07:54.993Z,99751.47
2023-05-01T19:10:22.911Z,99752.78
2023-05-01T19:12:50.582Z,99759.88
2023-05-01T19:15:24.766Z,99736.94
2023-05-01T19:17:54.778Z,99765.00
2023-05-01T19:20:22.410Z,99769.91
2023-05-01T19:22:50.190Z,99769.19
2023-05-01T19:25:17.986Z,99749.91
2023-05-01T19:27:46.302Z,99781.19
2023-05-01T19:30:15.081Z,99786.78
2023-05-01T19:32:42.739Z,99794.00
2023-05-01T19:35:12.384Z,99794.22
2023-05-01T19:37:40.057Z,99798.34
2023-05-01T19:40:09.223Z,99800.88
2023-05-01T19:42:37.353Z,99807.16
2023-05-01T19:45:06.034Z,99811.25
2023-05-01T19:47:33.921Z,99804.28
2023-05-01T19:50:02.117Z,99814.75
2023-05-01T19:52:31.873Z,99814.03
2023-05-01T19:55:02.858Z,99815.09
2023-05-01T19:57:30.542Z,99813.72
2023-05-01T19:59:59.326Z,99817.19
2023-05-01T20:02:27.712Z,99823.47
2023-05-01T20:04:55.729Z,99815.09
2023-05-01T20:07:23.431Z,99822.91
2023-05-01T20:09:53.488Z,99822.66
2023-05-01T20:12:22.518Z,99825.22
2023-05-01T20:14:50.136Z,99835.09
2023-05-01T20:17:18.287Z,99828.91
2023-05-01T20:19:45.944Z,99817.09
2023-05-01T20:22:14.178Z,99836.19
2023-05-01T20:24:41.830Z,99844.09
2023-05-01T20:27:11.225Z,99842.59
2023-05-01T20:29:39.566Z,99817.47
2023-05-01T20:32:07.609Z,99846.81
2023-05-01T20:34:35.276Z,99851.09
2023-05-01T20:37:02.901Z,99856.16
2023-05-01T20:39:31.006Z,99862.53
2023-05-01T20:41:59.021Z,99864.38
2023-05-01T20:44:28.040Z,99863.59
2023-05-01T20:46:56.121Z,99861.63
2023-05-01T20:49:23.812Z,99853.44
2023-05-01T20:51:51.454Z,99867.03
2023-05-01T20:54:19.077Z,99865.63
2023-05-01T20:56:46.694Z,99854.28
2023-05-01T20:59:14.567Z,99864.44
2023-05-01T21:01:43.863Z,99859.09
2023-05-01T21:04:11.852Z,99870.03
2023-05-01T21:06:39.558Z,99867.97
2023-05-01T21:09:11.408Z,99870.59
2023-05-01T21:11:40.451Z,99881.09
2023-05-01T21:14:08.282Z,99884.94
2023-05-01T21:16:36.418Z,99883.28
2023-05-01T21:19:06.250Z,99882.66
2023-05-01T21:21:36.600Z,99889.53
2023-05-01T21:24:04.619Z,99882.22
2023-05-01T21:26:32.591Z,99891.25
2023-05-01T21:29:00.460Z,99881.91
2023-05-01T21:31:32.314Z,99888.44
2023-05-01T21:34:02.267Z,99878.34
2023-05-01T21:36:32.318Z,99813.97
2023-05-01T21:39:01.463Z,99892.53
2023-05-01T21:41:29.321Z,99884.72
2023-05-01T21:43:57.174Z,99895.78
2023-05-01T21:46:25.108Z,99887.38
2023-05-01T21:48:52.829Z,99894.19
2023-05-01T21:51:27.230Z,99899.75
2023-05-01T21:53:56.311Z,99893.78
2023-05-01T21:56:24.021Z,99898.06
2023-05-01T21:58:52.333Z,99907.06
2023-05-01T22:01:22.602Z,99901.50
2023-05-01T22:03:51.784Z,99909.34
2023-05-01T22:06:19.529Z,99910.59
2023-05-01T22:08:47.893Z,99916.31
2023-05-01T22:11:16.868Z,99920.03
2023-05-01T22:13:44.496Z,99922.72
2023-05-01T22:16:13.916Z,99920.03
2023-05-01T22:18:41.609Z,99918.00
2023-05-01T22:21:09.642Z,99918.00
2023-05-01T22:23:37.274Z,99927.69
2023-05-01T22:26:04.935Z,99925.69
2023-05-01T22:28:33.917Z,99933.25
2023-05-01T22:31:01.774Z,99936.88
2023-05-01T22:33:29.399Z,99938.53
2023-05-01T22:35:56.983Z,99933.03
2023-05-01T22:38:24.919Z,99939.19
2023-05-01T22:40:52.498Z,99948.25
2023-05-01T22:43:20.213Z,99941.25
2023-05-01T22:45:49.426Z,99943.56
2023-05-01T22:48:17.105Z,99947.25
2023-05-01T22:50:44.968Z,99945.78
2023-05-01T22:53:12.600Z,99948.66
2023-05-01T22:55:40.501Z,99945.78
2023-05-01T22:58:08.234Z,99951.31
2023-05-01T23:00:36.470Z,99949.72
2023-05-01T23:03:05.618Z,99956.25
2023-05-01T23:05:33.726Z,99958.31
2023-05-01T23:08:01.957Z,99957.09
2023-05-01T23:10:31.181Z,99959.19
2023-05-01T23:13:01.328Z,99965.53
2023-05-01T23:15:29.381Z,99964.13
2023-05-01T23:17:57.724Z,99968.22
2023-05-01T23:20:26.747Z,99962.88
2023-05-01T23:22:54.782Z,99962.06
2023-05-01T23:25:25.369Z,99953.66
2023-05-01T23:27:56.669Z,99963.50
2023-05-01T23:30:24.516Z,99944.88
2023-05-01T23:32:52.335Z,99965.34
2023-05-01T23:35:24.185Z,99964.78
2023-05-01T23:37:53.571Z,99960.06
2023-05-01T23:40:21.885Z,99959.88
2023-05-01T23:42:50.105Z,99965.59
2023-05-01T23:45:17.941Z,99966.44
2023-05-01T23:47:45.922Z,99966.81
2023-05-01T23:50:13.801Z,99972.38
2023-05-01T23:52:41.541Z,99964.78
2023-05-01T23:55:11.006Z,99900.59
2023-05-01T23:57:38.625Z,99969.72
